Terminal Aerodrome Forecast
Issued by NWS Louisville, KY

Home | Current Version | Previous Version | Text Only | Print | Product List | Glossary On
Versions: 1 2 3 4 5 6 7 8 9 10 11 12 13 14 15 16 17 18 19 20 21 22
000
FTUS43 KLMK 171100
TAFSDF
TAF
KSDF 171121Z 1712/1818 VRB04KT 5SM BR VCSH BKN080
     FM171300 18007KT 4SM RA BR VCTS OVC050CB
     FM171900 18008KT 6SM -SHRA BR VCTS OVC040CB
     FM180000 18006KT 6SM -SHRA BR OVC035
     FM180400 VRB04KT 5SM -SHRA BR OVC025
     FM181200 28007KT P6SM VCSH OVC025=

USA.gov is the U.S. government's official web portal to all federal, state and local government web resources and services.